LFTH 301030Z AUTO 13010KT 090V150 CAVOK 22/11 Q1016 BECMG 22010G20KT

ElémentsDécodage
LFTH Station météo située sur l'aérodrome de HYERES Le-Palyvestre
301030Z émis le 30 du mois à 10h30 UTC
AUTO Bulletin édité par un automate
13010KT vent du 130°, 10 noeuds
090V150 vent de direction variable entre 090° et 150°
CAVOK Ceiling And Visibility OK
- Visibilité de 10 Km ou plus
- Pas de nuage au-dessous de 1500m ou au-dessous de l'altitude minimale du secteur la plus élevée (si>1500m) et absence de CB
- pas de temps présent significatif
22/11 température 22°C, point de rosée 11°C
 soit une humidité relative de 50%
Q1016 la pression au niveau de la mer (QNH) est de 1016 hPa
BECMG fluctuation du temps prévue
22010G20KT vent du 220°, moyenne: 10 noeuds, avec rafales à 20 noeuds